Fuji Maru — JD2030 — position and weather

sailwx.info

Track history (hours):
 
Tides and Currents Weather Stations Pressure Air Temp Water Temp Dewpoint Dewpoint Depression Visibility Wind Speed Wind Dir Waves Ship Positions

Fuji Maru

Last reported at 2017-Jul-24 05:28 UTC. Time now 2017-Jul-24 08:39 UTC.
Position N 35°39' E 139°46'.

Length 38 m; draft 4.4 m.

Type: Tug. MMSI: 431001102.

Date/timePositionNaut miles runAvg speedWind from/ knotsBaromVisibWave heightAir tempDewpointWater temp
2017-Jul-24 05:28N 35°39' E 139°46'0 0.0
2017-Jul-24 05:01N 35°39' E 139°46'0 0.0
2017-Jul-24 04:30N 35°39' E 139°46'0 0.0
2017-Jul-24 04:00N 35°39' E 139°46'0 0.0
2017-Jul-24 03:30N 35°39' E 139°46'0 0.0
2017-Jul-24 02:59N 35°39' E 139°46'0 0.0
2017-Jul-24 02:29N 35°39' E 139°46'0 0.0
2017-Jul-24 02:01N 35°39' E 139°46'0 0.0
2017-Jul-24 01:30N 35°39' E 139°46'0 0.0
2017-Jul-24 01:01N 35°39' E 139°46'0 0.0
2017-Jul-24 00:28N 35°39' E 139°46'0 0.0
2017-Jul-23 23:59N 35°39' E 139°46'0 0.0
2017-Jul-23 23:31N 35°39' E 139°46'0 0.0
2017-Jul-23 21:45N 35°39' E 139°46'0 0.0
2017-Jul-23 21:26N 35°39' E 139°46'0 0.0
2017-Jul-23 20:57N 35°39' E 139°46'0 0.0
2017-Jul-23 20:07N 35°39' E 139°46'0 0.0
2017-Jul-23 19:57N 35°39' E 139°46'0 0.0
2017-Jul-23 19:31N 35°39' E 139°46'0 0.0
2017-Jul-23 18:53N 35°39' E 139°46'0 0.0
2017-Jul-23 18:27N 35°39' E 139°46'0 0.0
2017-Jul-23 17:58N 35°39' E 139°46'0 0.0
2017-Jul-23 17:29N 35°39' E 139°46'0 0.0
2017-Jul-23 17:01N 35°39' E 139°46'3 5.7
2017-Jul-23 16:31N 35°36' E 139°47'2 4.7
2017-Jul-23 16:01N 35°38' E 139°45'2 5.0
2017-Jul-23 15:30N 35°36' E 139°46'1 1.5
2017-Jul-23 15:00N 35°35' E 139°47'3 6.4
2017-Jul-23 14:31N 35°33' E 139°50'2 3.1
2017-Jul-23 14:01N 35°34' E 139°49'5 9.4
2017-Jul-23 13:31N 35°38' E 139°45'0 0.4
2017-Jul-23 13:01N 35°38' E 139°46'0 0.0
2017-Jul-23 12:31N 35°38' E 139°46'2 4.6
2017-Jul-23 12:00N 35°36' E 139°47'0 0.4
2017-Jul-23 11:29N 35°36' E 139°46'1 1.9
2017-Jul-23 11:00N 35°37' E 139°46'1 2.5
2017-Jul-23 10:28N 35°38' E 139°45'2 3.5
2017-Jul-23 10:01N 35°37' E 139°46'0 0.4
2017-Jul-23 09:30N 35°36' E 139°46'3 5.1
2017-Jul-23 09:00N 35°35' E 139°48'0 0.6
2017-Jul-23 08:31N 35°35' E 139°48'3 4.9
2017-Jul-23 08:00N 35°37' E 139°47'1 2.1
2017-Jul-23 07:31N 35°37' E 139°47'0 0.4
2017-Jul-23 07:01N 35°37' E 139°47'1 2.2
2017-Jul-23 06:30N 35°36' E 139°46'0 0.0
2017-Jul-23 06:01N 35°36' E 139°46'0 0.0
2017-Jul-23 05:30N 35°36' E 139°46'0 0.0
2017-Jul-23 04:59N 35°36' E 139°46'1 3.0
2017-Jul-23 04:30N 35°37' E 139°48'1 2.0
2017-Jul-23 04:00N 35°37' E 139°49'0 0.5
2017-Jul-23 03:30N 35°37' E 139°49'3 5.7
2017-Jul-23 03:01N 35°38' E 139°46'1 2.0
2017-Jul-23 02:29N 35°39' E 139°46'0 0.0
2017-Jul-23 01:46N 35°39' E 139°46'0 0.0
2017-Jul-23 01:30N 35°39' E 139°46'0 0.1
2017-Jul-23 00:55N 35°39' E 139°46'0 0.1
2017-Jul-23 00:23N 35°39' E 139°46'0 0.0
2017-Jul-23 00:00N 35°39' E 139°46'0 0.0
2017-Jul-22 23:31N 35°39' E 139°46'1 2.7
2017-Jul-22 23:00N 35°37' E 139°46'1 2.2
2017-Jul-22 22:31N 35°36' E 139°46'2 4.1
2017-Jul-22 22:00N 35°35' E 139°48'1 1.3
2017-Jul-22 21:31N 35°35' E 139°47'4 7.3
2017-Jul-22 21:00N 35°39' E 139°46'0 0.0
2017-Jul-22 20:31N 35°39' E 139°46'0 0.0
2017-Jul-22 20:01N 35°39' E 139°46'0 0.0
2017-Jul-22 19:30N 35°39' E 139°46'0 0.0
2017-Jul-22 19:00N 35°39' E 139°46'0 0.0
2017-Jul-22 18:30N 35°39' E 139°46'0 0.0
2017-Jul-22 18:01N 35°39' E 139°46'0 0.0
2017-Jul-22 17:31N 35°39' E 139°46'0 0.0
2017-Jul-22 17:00N 35°39' E 139°46'0 0.0
2017-Jul-22 16:31N 35°39' E 139°46'0 0.0
2017-Jul-22 15:58N 35°39' E 139°46'0 0.0
2017-Jul-22 15:30N 35°39' E 139°46'0 0.0
2017-Jul-22 15:00N 35°39' E 139°46'0 0.0
2017-Jul-22 14:00N 35°39' E 139°46'0 0.0
2017-Jul-22 13:23N 35°39' E 139°46'0 0.0
2017-Jul-22 12:52N 35°39' E 139°46'0 0.0
2017-Jul-22 12:22N 35°39' E 139°46'0 0.0
2017-Jul-22 11:58N 35°39' E 139°46'0 0.0
2017-Jul-22 11:30N 35°39' E 139°46'0 0.0
2017-Jul-22 10:12N 35°39' E 139°46'0 0.0
2017-Jul-22 10:00N 35°39' E 139°46'3 5.7
2017-Jul-22 09:31N 35°36' E 139°47'1 1.9
2017-Jul-22 09:01N 35°35' E 139°47'1 2.7
2017-Jul-22 08:31N 35°34' E 139°48'2 4.6
2017-Jul-22 08:00N 35°36' E 139°46'2 4.0
2017-Jul-22 07:30N 35°38' E 139°46'1 1.7
2017-Jul-22 07:00N 35°39' E 139°46'0 0.0
2017-Jul-22 06:27N 35°39' E 139°46'0 0.0
2017-Jul-22 06:00N 35°39' E 139°46'0 0.0
2017-Jul-22 05:21N 35°39' E 139°46'0 0.0
2017-Jul-22 04:53N 35°39' E 139°46'0 0.0
2017-Jul-22 04:30N 35°39' E 139°46'0 0.0
2017-Jul-22 04:01N 35°39' E 139°46'0 0.0
2017-Jul-22 03:30N 35°39' E 139°46'0 0.0
2017-Jul-22 03:00N 35°39' E 139°46'0 0.0
2017-Jul-22 02:30N 35°39' E 139°46'2 4.1
2017-Jul-22 02:00N 35°37' E 139°46'2 4.1
2017-Jul-22 01:30N 35°39' E 139°46'0 0.0
2017-Jul-22 01:00N 35°39' E 139°46'0 0.0
2017-Jul-22 00:30N 35°39' E 139°46'0 0.0
2017-Jul-22 00:00N 35°39' E 139°46'0 0.0
2017-Jul-21 23:31N 35°39' E 139°46'0 0.0
2017-Jul-21 23:01N 35°39' E 139°46'0 0.0
2017-Jul-21 22:31N 35°39' E 139°46'0 0.0
2017-Jul-21 22:00N 35°39' E 139°46'0 0.0
2017-Jul-21 21:30N 35°39' E 139°46'0 0.0
2017-Jul-21 20:38N 35°39' E 139°46'0 0.0
2017-Jul-21 20:17N 35°39' E 139°46'0 0.0
2017-Jul-21 19:45N 35°39' E 139°46'0 0.0
2017-Jul-21 19:30N 35°39' E 139°46'0 0.0
2017-Jul-21 19:00N 35°39' E 139°46'0 0.0
2017-Jul-21 18:31N 35°39' E 139°46'0 0.0
2017-Jul-21 18:01N 35°39' E 139°46'0 0.0
2017-Jul-21 17:30N 35°39' E 139°46'0 0.0
2017-Jul-21 16:59N 35°39' E 139°46'0 0.0
2017-Jul-21 16:30N 35°39' E 139°46'0 0.0
2017-Jul-21 16:00N 35°39' E 139°46'0 0.0
2017-Jul-21 15:30N 35°39' E 139°46'0 0.0
2017-Jul-21 15:01N 35°39' E 139°46'0 0.0
2017-Jul-21 14:30N 35°39' E 139°46'0 0.0
2017-Jul-21 14:00N 35°39' E 139°46'0 0.0
2017-Jul-21 13:29N 35°39' E 139°46'0 0.0
2017-Jul-21 13:01N 35°39' E 139°46'0 0.0
2017-Jul-21 12:29N 35°39' E 139°46'0 0.0
2017-Jul-21 12:01N 35°39' E 139°46'0 0.0
2017-Jul-21 11:30N 35°39' E 139°46'0 0.0
2017-Jul-21 09:37N 35°39' E 139°46'0 0.0
2017-Jul-21 09:30N 35°39' E 139°46'0 0.0
2017-Jul-21 01:09N 35°38' E 139°46'2 9.9
2017-Jul-21 01:00N 35°37' E 139°46'1 2.5
2017-Jul-21 00:30N 35°36' E 139°47'3 5.3
2017-Jul-21 00:00N 35°34' E 139°49'3 5.1
2017-Jul-20 23:31N 35°35' E 139°47'0 0.0
2017-Jul-20 23:01N 35°35' E 139°47'1 1.9
2017-Jul-20 22:27N 35°36' E 139°47'1 2.0
2017-Jul-20 21:54N 35°35' E 139°47'0 0.8
2017-Jul-20 21:30N 35°35' E 139°47'4 0.6
2017-Jul-20 15:06N 35°39' E 139°46'0 0.0
2017-Jul-20 14:57N 35°39' E 139°46'0 0.0
2017-Jul-20 14:00N 35°39' E 139°46'0 0.0
2017-Jul-20 13:29N 35°39' E 139°46'0 0.0
2017-Jul-20 12:30N 35°39' E 139°46'0 0.0
2017-Jul-20 11:58N 35°39' E 139°46'0 0.0
2017-Jul-20 09:57N 35°39' E 139°46'0 0.0
2017-Jul-20 09:31N 35°39' E 139°46'0 0.0
2017-Jul-20 09:01N 35°39' E 139°46'0 0.0
2017-Jul-20 08:29N 35°39' E 139°46'0 0.0
2017-Jul-20 07:55N 35°39' E 139°46'0 0.0
2017-Jul-20 07:30N 35°39' E 139°46'0 0.0
2017-Jul-20 06:59N 35°39' E 139°46'0 0.0
2017-Jul-20 06:30N 35°39' E 139°46'0 0.0
2017-Jul-20 06:00N 35°39' E 139°46'0 0.0
2017-Jul-20 05:15N 35°39' E 139°46'0 0.0
2017-Jul-20 03:01N 35°39' E 139°46'0 0.0
2017-Jul-20 02:44N 35°39' E 139°46'0 0.0
2017-Jul-20 02:30N 35°39' E 139°46'0 0.0
2017-Jul-20 02:00N 35°39' E 139°46'0 0.0
2017-Jul-20 01:30N 35°39' E 139°46'0 0.0
2017-Jul-20 01:00N 35°39' E 139°46'0 0.0
2017-Jul-20 00:30N 35°39' E 139°46'0 0.0
2017-Jul-20 00:01N 35°39' E 139°46'0 0.0
2017-Jul-19 23:30N 35°39' E 139°46'0 0.0
2017-Jul-19 23:01N 35°39' E 139°46'3 5.4
2017-Jul-19 22:31N 35°36' E 139°46'1 2.2
2017-Jul-19 22:00N 35°35' E 139°47'2 4.7
2017-Jul-19 21:31N 35°34' E 139°50'1 1.0
2017-Jul-19 21:00N 35°34' E 139°49'3 6.4
2017-Jul-19 20:31N 35°36' E 139°46'0 0.4
2017-Jul-19 20:00N 35°36' E 139°46'1 1.7
2017-Jul-19 19:30N 35°37' E 139°46'2 2.9
2017-Jul-19 18:58N 35°39' E 139°46'0 0.0
2017-Jul-19 18:30N 35°39' E 139°46'0 0.0
2017-Jul-19 18:00N 35°39' E 139°46'0 0.0
2017-Jul-19 17:30N 35°39' E 139°46'0 0.0
2017-Jul-19 17:00N 35°39' E 139°46'0 0.0
2017-Jul-19 16:30N 35°39' E 139°46'0 0.0
2017-Jul-19 16:01N 35°39' E 139°46'0 0.0
2017-Jul-19 15:30N 35°39' E 139°46'0 0.0
2017-Jul-19 15:00N 35°39' E 139°46'0 0.0
2017-Jul-19 14:24N 35°39' E 139°46'0 0.0
2017-Jul-19 14:00N 35°39' E 139°46'0 0.0
2017-Jul-19 13:30N 35°39' E 139°46'0 0.0
2017-Jul-19 13:00N 35°39' E 139°46'0 0.0
2017-Jul-19 12:30N 35°39' E 139°46'0 0.0
2017-Jul-19 11:59N 35°39' E 139°46'0 0.0
2017-Jul-19 11:30N 35°39' E 139°46'0 0.0
2017-Jul-19 11:00N 35°39' E 139°46'0 0.0
2017-Jul-19 10:24N 35°39' E 139°46'0 0.0
2017-Jul-19 09:58N 35°39' E 139°46'0 0.0
2017-Jul-19 09:28N 35°39' E 139°46'0 0.0
2017-Jul-19 08:54N 35°39' E 139°46'0 0.0
2017-Jul-19 08:30N 35°39' E 139°46'0 0.0
2017-Jul-19 08:00N 35°39' E 139°46'0 0.0
2017-Jul-19 07:30N 35°39' E 139°46'0 0.0
2017-Jul-19 07:00N 35°39' E 139°46'0 0.0
2017-Jul-19 06:30N 35°39' E 139°46'0 0.0
2017-Jul-19 05:58N 35°39' E 139°46'0 0.0
2017-Jul-19 05:29N 35°39' E 139°46'0 0.0
2017-Jul-19 04:57N 35°39' E 139°46'0 0.0
2017-Jul-19 04:18N 35°39' E 139°46'0 0.0
2017-Jul-19 03:43N 35°39' E 139°46'0 0.0
2017-Jul-19 03:30N 35°39' E 139°46'0 0.0
2017-Jul-19 01:52N 35°39' E 139°46'0 0.0
2017-Jul-19 01:28N 35°39' E 139°46'0 0.0
2017-Jul-19 00:49N 35°39' E 139°46'0 0.0
2017-Jul-19 00:31N 35°39' E 139°46'0 0.0
2017-Jul-18 23:59N 35°39' E 139°46'0 0.0
2017-Jul-18 23:30N 35°39' E 139°46'0 0.0
2017-Jul-18 23:00N 35°39' E 139°46'0 0.0
2017-Jul-18 22:31N 35°39' E 139°46'0 0.0
2017-Jul-18 22:00N 35°39' E 139°46'0 0.0
2017-Jul-18 21:30N 35°39' E 139°46'0 0.0
2017-Jul-18 20:58N 35°39' E 139°46'0 0.0
2017-Jul-18 20:31N 35°39' E 139°46'0 0.0
2017-Jul-18 19:55N 35°39' E 139°46'0 0.0
2017-Jul-18 19:11N 35°39' E 139°46'0 0.0
2017-Jul-18 18:44N 35°39' E 139°46'0 0.0
2017-Jul-18 16:46N 35°39' E 139°46'2 6.0
2017-Jul-18 16:30N 35°37' E 139°46'0 0.7
2017-Jul-18 16:00N 35°38' E 139°46'0 0.0
2017-Jul-18 15:31N 35°38' E 139°46'0 0.0
2017-Jul-18 15:01N 35°38' E 139°46'1 1.2
2017-Jul-18 14:00N 35°37' E 139°46'3 6.6
2017-Jul-18 13:30N 35°34' E 139°49'2 4.4
2017-Jul-18 13:00N 35°36' E 139°48'0 0.0
2017-Jul-18 12:31N 35°36' E 139°48'0 0.0
2017-Jul-18 12:00N 35°36' E 139°48'0 0.0
2017-Jul-18 11:30N 35°36' E 139°48'0 0.0
2017-Jul-18 11:01N 35°36' E 139°48'0 0.0
2017-Jul-18 10:31N 35°36' E 139°48'1 2.3
2017-Jul-18 10:00N 35°36' E 139°46'0 1.0
2017-Jul-18 09:31N 35°37' E 139°46'2 3.9
2017-Jul-18 09:01N 35°39' E 139°46'0 0.0
2017-Jul-18 08:28N 35°39' E 139°46'0 0.0
2017-Jul-18 08:00N 35°39' E 139°46'0 0.0
2017-Jul-18 07:30N 35°39' E 139°46'0 0.0
2017-Jul-18 07:00N 35°39' E 139°46'0 0.0
2017-Jul-18 06:30N 35°39' E 139°46'0 0.0
2017-Jul-18 06:00N 35°39' E 139°46'0 0.0
2017-Jul-18 05:10N 35°39' E 139°46'0 0.0
2017-Jul-18 04:53N 35°39' E 139°46'0 0.0
2017-Jul-18 03:31N 35°39' E 139°46'0 0.0
2017-Jul-18 03:30N 35°39' E 139°46'0 0.0
2017-Jul-18 02:55N 35°39' E 139°46'0 0.0
2017-Jul-18 02:27N 35°39' E 139°46'0 0.0
2017-Jul-18 02:01N 35°39' E 139°46'0 0.0
2017-Jul-18 01:30N 35°39' E 139°46'0 0.0
2017-Jul-18 00:54N 35°39' E 139°46'0 0.0
2017-Jul-18 00:01N 35°39' E 139°46'0 0.0
2017-Jul-17 23:56N 35°39' E 139°46'2 5.1
2017-Jul-17 23:30N 35°37' E 139°46'1 2.4
2017-Jul-17 23:00N 35°36' E 139°47'1 1.9
2017-Jul-17 22:31N 35°35' E 139°48'3 5.9
2017-Jul-17 22:00N 35°33' E 139°50'2 4.7
2017-Jul-17 21:30N 35°33' E 139°53'5 9.5
2017-Jul-17 21:00N 35°35' E 139°48'2 3.5
2017-Jul-17 20:30N 35°36' E 139°46'1 2.5
2017-Jul-17 20:01N 35°37' E 139°46'2 3.2
2017-Jul-17 19:31N 35°39' E 139°46'0 0.0
2017-Jul-17 18:41N 35°39' E 139°46'0 0.0
2017-Jul-17 16:28N 35°39' E 139°46'0 0.0
2017-Jul-17 15:53N 35°39' E 139°46'0 0.0
2017-Jul-17 13:38N 35°39' E 139°46'0 0.0
2017-Jul-17 13:30N 35°39' E 139°46'0 0.0
2017-Jul-17 13:00N 35°39' E 139°46'0 0.0
2017-Jul-17 12:04N 35°39' E 139°46'0 0.0
2017-Jul-17 11:58N 35°39' E 139°46'0 0.0
2017-Jul-17 09:25N 35°39' E 139°46'0 0.0
2017-Jul-17 09:00N 35°39' E 139°46'0 0.0
2017-Jul-17 08:30N 35°39' E 139°46'0 0.0
2017-Jul-17 07:59N 35°39' E 139°46'0 0.0
2017-Jul-17 07:30N 35°39' E 139°46'0 0.0
2017-Jul-17 07:00N 35°39' E 139°46'0 0.0
2017-Jul-17 06:31N 35°39' E 139°46'0 0.0
2017-Jul-17 06:00N 35°39' E 139°46'0 0.0
2017-Jul-17 05:30N 35°39' E 139°46'0 0.0
2017-Jul-17 04:58N 35°39' E 139°46'0 0.0
2017-Jul-17 01:58N 35°39' E 139°46'0 0.0
2017-Jul-17 01:28N 35°39' E 139°46'0 0.0
2017-Jul-17 00:45N 35°39' E 139°46'0 0.0
2017-Jul-16 22:17N 35°39' E 139°46'0 0.0
2017-Jul-16 22:00N 35°39' E 139°46'0 0.0
2017-Jul-16 21:30N 35°39' E 139°46'0 0.0
2017-Jul-16 21:00N 35°39' E 139°46'0 0.0
2017-Jul-16 20:30N 35°39' E 139°46'0 0.0
2017-Jul-16 20:00N 35°39' E 139°46'0 0.0
2017-Jul-16 19:31N 35°39' E 139°46'0 0.0
2017-Jul-16 19:00N 35°39' E 139°46'0 0.0
2017-Jul-16 18:30N 35°39' E 139°46'0 0.0
2017-Jul-16 18:00N 35°39' E 139°46'0 0.0
2017-Jul-16 17:30N 35°39' E 139°46'0 0.0
2017-Jul-16 17:00N 35°39' E 139°46'0 0.0
2017-Jul-16 16:30N 35°39' E 139°46'0 0.0
2017-Jul-16 16:00N 35°39' E 139°46'0 0.0
2017-Jul-16 15:30N 35°39' E 139°46'0 0.0
2017-Jul-16 14:54N 35°39' E 139°46'0 0.0
2017-Jul-16 14:21N 35°39' E 139°46'0 0.0
2017-Jul-16 14:01N 35°39' E 139°46'0 0.0
2017-Jul-16 12:50N 35°39' E 139°46'0 0.0
2017-Jul-16 12:24N 35°39' E 139°46'0 0.0
2017-Jul-16 11:55N 35°39' E 139°46'0 0.0
2017-Jul-16 11:30N 35°39' E 139°46'0 0.0
2017-Jul-16 10:57N 35°39' E 139°46'0 0.0
2017-Jul-16 10:29N 35°39' E 139°46'0 0.0
2017-Jul-16 09:59N 35°39' E 139°46'0 0.0
2017-Jul-16 09:30N 35°39' E 139°46'0 0.0
2017-Jul-16 09:00N 35°39' E 139°46'0 0.0
2017-Jul-16 08:30N 35°39' E 139°46'0 0.0
2017-Jul-16 08:00N 35°39' E 139°46'0 0.0
2017-Jul-16 07:30N 35°39' E 139°46'0 0.0
2017-Jul-16 07:00N 35°39' E 139°46'0 0.0
2017-Jul-16 06:30N 35°39' E 139°46'0 0.0
2017-Jul-16 06:01N 35°39' E 139°46'0 0.0
2017-Jul-16 05:30N 35°39' E 139°46'0 0.0
2017-Jul-16 05:01N 35°39' E 139°46'0 0.0
2017-Jul-16 04:30N 35°39' E 139°46'0 0.0
2017-Jul-16 04:00N 35°39' E 139°46'0 0.0
2017-Jul-16 03:30N 35°39' E 139°46'0 0.0
2017-Jul-16 02:57N 35°39' E 139°46'0 0.0
2017-Jul-16 01:13N 35°39' E 139°46'0 0.0
2017-Jul-16 00:55N 35°39' E 139°46'0 0.0
2017-Jul-16 00:23N 35°39' E 139°46'0 0.0
2017-Jul-15 23:50N 35°39' E 139°46'0 0.0
2017-Jul-15 22:45N 35°39' E 139°46'0 0.0
2017-Jul-15 22:28N 35°39' E 139°46'0 0.0
2017-Jul-15 22:00N 35°39' E 139°46'0 0.0
2017-Jul-15 21:30N 35°39' E 139°46'0 0.0
2017-Jul-15 21:00N 35°39' E 139°46'0 0.0
2017-Jul-15 20:31N 35°39' E 139°46'0 0.0
2017-Jul-15 20:00N 35°39' E 139°46'0 0.0
2017-Jul-15 19:31N 35°39' E 139°46'0 0.0
2017-Jul-15 19:00N 35°39' E 139°46'0 0.0
2017-Jul-15 18:30N 35°39' E 139°46'0 0.0
2017-Jul-15 18:00N 35°39' E 139°46'0 0.0
2017-Jul-15 17:31N 35°39' E 139°46'0 0.0
2017-Jul-15 17:00N 35°39' E 139°46'0 0.0
2017-Jul-15 16:30N 35°39' E 139°46'0 0.0
2017-Jul-15 16:01N 35°39' E 139°46'0 0.0
2017-Jul-15 15:30N 35°39' E 139°46'0 0.0
2017-Jul-15 15:01N 35°39' E 139°46'0 0.0
2017-Jul-15 12:32N 35°39' E 139°46'0 0.0
2017-Jul-15 12:29N 35°39' E 139°46'0 0.0
2017-Jul-15 11:41N 35°39' E 139°46'0 0.0
2017-Jul-15 09:58N 35°39' E 139°46'0 0.0
2017-Jul-15 09:25N 35°39' E 139°46'0 0.0
2017-Jul-15 09:00N 35°39' E 139°46'1 2.7
2017-Jul-15 08:31N 35°37' E 139°46'2 3.4
2017-Jul-15 08:00N 35°36' E 139°47'0 0.8
2017-Jul-15 07:31N 35°35' E 139°47'1 2.3
2017-Jul-15 07:00N 35°37' E 139°47'2 2.2
2017-Jul-15 06:13N 35°38' E 139°45'1 0.2
2017-Jul-15 02:59N 35°39' E 139°46'0 0.0
2017-Jul-15 02:31N 35°39' E 139°46'0 0.0
2017-Jul-15 02:00N 35°39' E 139°46'0 0.0
2017-Jul-15 01:30N 35°39' E 139°46'0 0.0
2017-Jul-15 01:01N 35°39' E 139°46'0 0.0
2017-Jul-15 00:31N 35°39' E 139°46'0 0.0
2017-Jul-15 00:00N 35°39' E 139°46'0 0.7
2017-Jul-14 23:30N 35°38' E 139°46'3 5.5
2017-Jul-14 23:00N 35°36' E 139°46'1 2.8
2017-Jul-14 22:30N 35°35' E 139°48'0 0.8
2017-Jul-14 22:00N 35°35' E 139°48'4 8.0
2017-Jul-14 21:31N 35°38' E 139°46'1 1.4
2017-Jul-14 21:00N 35°39' E 139°46'0 0.0
2017-Jul-14 20:30N 35°39' E 139°46'0 0.0
2017-Jul-14 20:00N 35°39' E 139°46'0 0.0
2017-Jul-14 19:31N 35°39' E 139°46'0 0.0
2017-Jul-14 19:01N 35°39' E 139°46'0 0.0
2017-Jul-14 18:30N 35°39' E 139°46'0 0.0
2017-Jul-14 18:00N 35°39' E 139°46'0 0.0
2017-Jul-14 17:30N 35°39' E 139°46'0 0.0
2017-Jul-14 17:00N 35°39' E 139°46'0 0.0
2017-Jul-14 16:30N 35°39' E 139°46'0 0.0
2017-Jul-14 16:01N 35°39' E 139°46'0 0.0
2017-Jul-14 15:31N 35°39' E 139°46'0 0.0
2017-Jul-14 15:01N 35°39' E 139°46'0 0.0
2017-Jul-14 14:31N 35°39' E 139°46'0 0.0
2017-Jul-14 14:01N 35°39' E 139°46'0 0.0
2017-Jul-14 13:31N 35°39' E 139°46'0 0.0
2017-Jul-14 07:42N 35°39' E 139°46'1 3.2
2017-Jul-14 07:16N 35°37' E 139°46'1 3.6
2017-Jul-14 07:00N 35°38' E 139°46'  
Track history (hours):
 
Tides and Currents Weather Stations Pressure Air Temp Water Temp Dewpoint Dewpoint Depression Visibility Wind Speed Wind Dir Waves Ship Positions

Fuji Maru

Last reported at 2017-Jul-24 05:28 UTC. Time now 2017-Jul-24 08:39 UTC.
Position N 35°39' E 139°46'.

Length 38 m; draft 4.4 m.

Type: Tug. MMSI: 431001102.

Date/timePositionNaut miles runAvg speedWind from/ knotsBaromVisibWave heightAir tempDewpointWater temp
2017-Jul-24 05:28N 35°39' E 139°46'0 0.0
2017-Jul-24 05:01N 35°39' E 139°46'0 0.0
2017-Jul-24 04:30N 35°39' E 139°46'0 0.0
2017-Jul-24 04:00N 35°39' E 139°46'0 0.0
2017-Jul-24 03:30N 35°39' E 139°46'0 0.0
2017-Jul-24 02:59N 35°39' E 139°46'0 0.0
2017-Jul-24 02:29N 35°39' E 139°46'0 0.0
2017-Jul-24 02:01N 35°39' E 139°46'0 0.0
2017-Jul-24 01:30N 35°39' E 139°46'0 0.0
2017-Jul-24 01:01N 35°39' E 139°46'0 0.0
2017-Jul-24 00:28N 35°39' E 139°46'0 0.0
2017-Jul-23 23:59N 35°39' E 139°46'0 0.0
2017-Jul-23 23:31N 35°39' E 139°46'0 0.0
2017-Jul-23 21:45N 35°39' E 139°46'0 0.0
2017-Jul-23 21:26N 35°39' E 139°46'0 0.0
2017-Jul-23 20:57N 35°39' E 139°46'0 0.0
2017-Jul-23 20:07N 35°39' E 139°46'0 0.0
2017-Jul-23 19:57N 35°39' E 139°46'0 0.0
2017-Jul-23 19:31N 35°39' E 139°46'0 0.0
2017-Jul-23 18:53N 35°39' E 139°46'0 0.0
2017-Jul-23 18:27N 35°39' E 139°46'0 0.0
2017-Jul-23 17:58N 35°39' E 139°46'0 0.0
2017-Jul-23 17:29N 35°39' E 139°46'0 0.0
2017-Jul-23 17:01N 35°39' E 139°46'3 5.7
2017-Jul-23 16:31N 35°36' E 139°47'2 4.7
2017-Jul-23 16:01N 35°38' E 139°45'2 5.0
2017-Jul-23 15:30N 35°36' E 139°46'1 1.5
2017-Jul-23 15:00N 35°35' E 139°47'3 6.4
2017-Jul-23 14:31N 35°33' E 139°50'2 3.1
2017-Jul-23 14:01N 35°34' E 139°49'5 9.4
2017-Jul-23 13:31N 35°38' E 139°45'0 0.4
2017-Jul-23 13:01N 35°38' E 139°46'0 0.0
2017-Jul-23 12:31N 35°38' E 139°46'2 4.6
2017-Jul-23 12:00N 35°36' E 139°47'0 0.4
2017-Jul-23 11:29N 35°36' E 139°46'1 1.9
2017-Jul-23 11:00N 35°37' E 139°46'1 2.5
2017-Jul-23 10:28N 35°38' E 139°45'2 3.5
2017-Jul-23 10:01N 35°37' E 139°46'0 0.4
2017-Jul-23 09:30N 35°36' E 139°46'3 5.1
2017-Jul-23 09:00N 35°35' E 139°48'0 0.6
2017-Jul-23 08:31N 35°35' E 139°48'3 4.9
2017-Jul-23 08:00N 35°37' E 139°47'1 2.1
2017-Jul-23 07:31N 35°37' E 139°47'0 0.4
2017-Jul-23 07:01N 35°37' E 139°47'1 2.2
2017-Jul-23 06:30N 35°36' E 139°46'0 0.0
2017-Jul-23 06:01N 35°36' E 139°46'0 0.0
2017-Jul-23 05:30N 35°36' E 139°46'0 0.0
2017-Jul-23 04:59N 35°36' E 139°46'1 3.0
2017-Jul-23 04:30N 35°37' E 139°48'1 2.0
2017-Jul-23 04:00N 35°37' E 139°49'0 0.5
2017-Jul-23 03:30N 35°37' E 139°49'3 5.7
2017-Jul-23 03:01N 35°38' E 139°46'1 2.0
2017-Jul-23 02:29N 35°39' E 139°46'0 0.0
2017-Jul-23 01:46N 35°39' E 139°46'0 0.0
2017-Jul-23 01:30N 35°39' E 139°46'0 0.1
2017-Jul-23 00:55N 35°39' E 139°46'0 0.1
2017-Jul-23 00:23N 35°39' E 139°46'0 0.0
2017-Jul-23 00:00N 35°39' E 139°46'0 0.0
2017-Jul-22 23:31N 35°39' E 139°46'1 2.7
2017-Jul-22 23:00N 35°37' E 139°46'1 2.2
2017-Jul-22 22:31N 35°36' E 139°46'2 4.1
2017-Jul-22 22:00N 35°35' E 139°48'1 1.3
2017-Jul-22 21:31N 35°35' E 139°47'4 7.3
2017-Jul-22 21:00N 35°39' E 139°46'0 0.0
2017-Jul-22 20:31N 35°39' E 139°46'0 0.0
2017-Jul-22 20:01N 35°39' E 139°46'0 0.0
2017-Jul-22 19:30N 35°39' E 139°46'0 0.0
2017-Jul-22 19:00N 35°39' E 139°46'0 0.0
2017-Jul-22 18:30N 35°39' E 139°46'0 0.0
2017-Jul-22 18:01N 35°39' E 139°46'0 0.0
2017-Jul-22 17:31N 35°39' E 139°46'0 0.0
2017-Jul-22 17:00N 35°39' E 139°46'0 0.0
2017-Jul-22 16:31N 35°39' E 139°46'0 0.0
2017-Jul-22 15:58N 35°39' E 139°46'0 0.0
2017-Jul-22 15:30N 35°39' E 139°46'0 0.0
2017-Jul-22 15:00N 35°39' E 139°46'0 0.0
2017-Jul-22 14:00N 35°39' E 139°46'0 0.0
2017-Jul-22 13:23N 35°39' E 139°46'0 0.0
2017-Jul-22 12:52N 35°39' E 139°46'0 0.0
2017-Jul-22 12:22N 35°39' E 139°46'0 0.0
2017-Jul-22 11:58N 35°39' E 139°46'0 0.0
2017-Jul-22 11:30N 35°39' E 139°46'0 0.0
2017-Jul-22 10:12N 35°39' E 139°46'0 0.0
2017-Jul-22 10:00N 35°39' E 139°46'3 5.7
2017-Jul-22 09:31N 35°36' E 139°47'1 1.9
2017-Jul-22 09:01N 35°35' E 139°47'1 2.7
2017-Jul-22 08:31N 35°34' E 139°48'2 4.6
2017-Jul-22 08:00N 35°36' E 139°46'2 4.0
2017-Jul-22 07:30N 35°38' E 139°46'1 1.7
2017-Jul-22 07:00N 35°39' E 139°46'0 0.0
2017-Jul-22 06:27N 35°39' E 139°46'0 0.0
2017-Jul-22 06:00N 35°39' E 139°46'0 0.0
2017-Jul-22 05:21N 35°39' E 139°46'0 0.0
2017-Jul-22 04:53N 35°39' E 139°46'0 0.0
2017-Jul-22 04:30N 35°39' E 139°46'0 0.0
2017-Jul-22 04:01N 35°39' E 139°46'0 0.0
2017-Jul-22 03:30N 35°39' E 139°46'0 0.0
2017-Jul-22 03:00N 35°39' E 139°46'0 0.0
2017-Jul-22 02:30N 35°39' E 139°46'2 4.1
2017-Jul-22 02:00N 35°37' E 139°46'2 4.1
2017-Jul-22 01:30N 35°39' E 139°46'0 0.0
2017-Jul-22 01:00N 35°39' E 139°46'0 0.0
2017-Jul-22 00:30N 35°39' E 139°46'0 0.0
2017-Jul-22 00:00N 35°39' E 139°46'0 0.0
2017-Jul-21 23:31N 35°39' E 139°46'0 0.0
2017-Jul-21 23:01N 35°39' E 139°46'0 0.0
2017-Jul-21 22:31N 35°39' E 139°46'0 0.0
2017-Jul-21 22:00N 35°39' E 139°46'0 0.0
2017-Jul-21 21:30N 35°39' E 139°46'0 0.0
2017-Jul-21 20:38N 35°39' E 139°46'0 0.0
2017-Jul-21 20:17N 35°39' E 139°46'0 0.0
2017-Jul-21 19:45N 35°39' E 139°46'0 0.0
2017-Jul-21 19:30N 35°39' E 139°46'0 0.0
2017-Jul-21 19:00N 35°39' E 139°46'0 0.0
2017-Jul-21 18:31N 35°39' E 139°46'0 0.0
2017-Jul-21 18:01N 35°39' E 139°46'0 0.0
2017-Jul-21 17:30N 35°39' E 139°46'0 0.0
2017-Jul-21 16:59N 35°39' E 139°46'0 0.0
2017-Jul-21 16:30N 35°39' E 139°46'0 0.0
2017-Jul-21 16:00N 35°39' E 139°46'0 0.0
2017-Jul-21 15:30N 35°39' E 139°46'0 0.0
2017-Jul-21 15:01N 35°39' E 139°46'0 0.0
2017-Jul-21 14:30N 35°39' E 139°46'0 0.0
2017-Jul-21 14:00N 35°39' E 139°46'0 0.0
2017-Jul-21 13:29N 35°39' E 139°46'0 0.0
2017-Jul-21 13:01N 35°39' E 139°46'0 0.0
2017-Jul-21 12:29N 35°39' E 139°46'0 0.0
2017-Jul-21 12:01N 35°39' E 139°46'0 0.0
2017-Jul-21 11:30N 35°39' E 139°46'0 0.0
2017-Jul-21 09:37N 35°39' E 139°46'0 0.0
2017-Jul-21 09:30N 35°39' E 139°46'0 0.0
2017-Jul-21 01:09N 35°38' E 139°46'2 9.9
2017-Jul-21 01:00N 35°37' E 139°46'1 2.5
2017-Jul-21 00:30N 35°36' E 139°47'3 5.3
2017-Jul-21 00:00N 35°34' E 139°49'3 5.1
2017-Jul-20 23:31N 35°35' E 139°47'0 0.0
2017-Jul-20 23:01N 35°35' E 139°47'1 1.9
2017-Jul-20 22:27N 35°36' E 139°47'1 2.0
2017-Jul-20 21:54N 35°35' E 139°47'0 0.8
2017-Jul-20 21:30N 35°35' E 139°47'4 0.6
2017-Jul-20 15:06N 35°39' E 139°46'0 0.0
2017-Jul-20 14:57N 35°39' E 139°46'0 0.0
2017-Jul-20 14:00N 35°39' E 139°46'0 0.0
2017-Jul-20 13:29N 35°39' E 139°46'0 0.0
2017-Jul-20 12:30N 35°39' E 139°46'0 0.0
2017-Jul-20 11:58N 35°39' E 139°46'0 0.0
2017-Jul-20 09:57N 35°39' E 139°46'0 0.0
2017-Jul-20 09:31N 35°39' E 139°46'0 0.0
2017-Jul-20 09:01N 35°39' E 139°46'0 0.0
2017-Jul-20 08:29N 35°39' E 139°46'0 0.0
2017-Jul-20 07:55N 35°39' E 139°46'0 0.0
2017-Jul-20 07:30N 35°39' E 139°46'0 0.0
2017-Jul-20 06:59N 35°39' E 139°46'0 0.0
2017-Jul-20 06:30N 35°39' E 139°46'0 0.0
2017-Jul-20 06:00N 35°39' E 139°46'0 0.0
2017-Jul-20 05:15N 35°39' E 139°46'0 0.0
2017-Jul-20 03:01N 35°39' E 139°46'0 0.0
2017-Jul-20 02:44N 35°39' E 139°46'0 0.0
2017-Jul-20 02:30N 35°39' E 139°46'0 0.0
2017-Jul-20 02:00N 35°39' E 139°46'0 0.0
2017-Jul-20 01:30N 35°39' E 139°46'0 0.0
2017-Jul-20 01:00N 35°39' E 139°46'0 0.0
2017-Jul-20 00:30N 35°39' E 139°46'0 0.0
2017-Jul-20 00:01N 35°39' E 139°46'0 0.0
2017-Jul-19 23:30N 35°39' E 139°46'0 0.0
2017-Jul-19 23:01N 35°39' E 139°46'3 5.4
2017-Jul-19 22:31N 35°36' E 139°46'1 2.2
2017-Jul-19 22:00N 35°35' E 139°47'2 4.7
2017-Jul-19 21:31N 35°34' E 139°50'1 1.0
2017-Jul-19 21:00N 35°34' E 139°49'3 6.4
2017-Jul-19 20:31N 35°36' E 139°46'0 0.4
2017-Jul-19 20:00N 35°36' E 139°46'1 1.7
2017-Jul-19 19:30N 35°37' E 139°46'2 2.9
2017-Jul-19 18:58N 35°39' E 139°46'0 0.0
2017-Jul-19 18:30N 35°39' E 139°46'0 0.0
2017-Jul-19 18:00N 35°39' E 139°46'0 0.0
2017-Jul-19 17:30N 35°39' E 139°46'0 0.0
2017-Jul-19 17:00N 35°39' E 139°46'0 0.0
2017-Jul-19 16:30N 35°39' E 139°46'0 0.0
2017-Jul-19 16:01N 35°39' E 139°46'0 0.0
2017-Jul-19 15:30N 35°39' E 139°46'0 0.0
2017-Jul-19 15:00N 35°39' E 139°46'0 0.0
2017-Jul-19 14:24N 35°39' E 139°46'0 0.0
2017-Jul-19 14:00N 35°39' E 139°46'0 0.0
2017-Jul-19 13:30N 35°39' E 139°46'0 0.0
2017-Jul-19 13:00N 35°39' E 139°46'0 0.0
2017-Jul-19 12:30N 35°39' E 139°46'0 0.0
2017-Jul-19 11:59N 35°39' E 139°46'0 0.0
2017-Jul-19 11:30N 35°39' E 139°46'0 0.0
2017-Jul-19 11:00N 35°39' E 139°46'0 0.0
2017-Jul-19 10:24N 35°39' E 139°46'0 0.0
2017-Jul-19 09:58N 35°39' E 139°46'0 0.0
2017-Jul-19 09:28N 35°39' E 139°46'0 0.0
2017-Jul-19 08:54N 35°39' E 139°46'0 0.0
2017-Jul-19 08:30N 35°39' E 139°46'0 0.0
2017-Jul-19 08:00N 35°39' E 139°46'0 0.0
2017-Jul-19 07:30N 35°39' E 139°46'0 0.0
2017-Jul-19 07:00N 35°39' E 139°46'0 0.0
2017-Jul-19 06:30N 35°39' E 139°46'0 0.0
2017-Jul-19 05:58N 35°39' E 139°46'0 0.0
2017-Jul-19 05:29N 35°39' E 139°46'0 0.0
2017-Jul-19 04:57N 35°39' E 139°46'0 0.0
2017-Jul-19 04:18N 35°39' E 139°46'0 0.0
2017-Jul-19 03:43N 35°39' E 139°46'0 0.0
2017-Jul-19 03:30N 35°39' E 139°46'0 0.0
2017-Jul-19 01:52N 35°39' E 139°46'0 0.0
2017-Jul-19 01:28N 35°39' E 139°46'0 0.0
2017-Jul-19 00:49N 35°39' E 139°46'0 0.0
2017-Jul-19 00:31N 35°39' E 139°46'0 0.0
2017-Jul-18 23:59N 35°39' E 139°46'0 0.0
2017-Jul-18 23:30N 35°39' E 139°46'0 0.0
2017-Jul-18 23:00N 35°39' E 139°46'0 0.0
2017-Jul-18 22:31N 35°39' E 139°46'0 0.0
2017-Jul-18 22:00N 35°39' E 139°46'0 0.0
2017-Jul-18 21:30N 35°39' E 139°46'0 0.0
2017-Jul-18 20:58N 35°39' E 139°46'0 0.0
2017-Jul-18 20:31N 35°39' E 139°46'0 0.0
2017-Jul-18 19:55N 35°39' E 139°46'0 0.0
2017-Jul-18 19:11N 35°39' E 139°46'0 0.0
2017-Jul-18 18:44N 35°39' E 139°46'0 0.0
2017-Jul-18 16:46N 35°39' E 139°46'2 6.0
2017-Jul-18 16:30N 35°37' E 139°46'0 0.7
2017-Jul-18 16:00N 35°38' E 139°46'0 0.0
2017-Jul-18 15:31N 35°38' E 139°46'0 0.0
2017-Jul-18 15:01N 35°38' E 139°46'1 1.2
2017-Jul-18 14:00N 35°37' E 139°46'3 6.6
2017-Jul-18 13:30N 35°34' E 139°49'2 4.4
2017-Jul-18 13:00N 35°36' E 139°48'0 0.0
2017-Jul-18 12:31N 35°36' E 139°48'0 0.0
2017-Jul-18 12:00N 35°36' E 139°48'0 0.0
2017-Jul-18 11:30N 35°36' E 139°48'0 0.0
2017-Jul-18 11:01N 35°36' E 139°48'0 0.0
2017-Jul-18 10:31N 35°36' E 139°48'1 2.3
2017-Jul-18 10:00N 35°36' E 139°46'0 1.0
2017-Jul-18 09:31N 35°37' E 139°46'2 3.9
2017-Jul-18 09:01N 35°39' E 139°46'0 0.0
2017-Jul-18 08:28N 35°39' E 139°46'0 0.0
2017-Jul-18 08:00N 35°39' E 139°46'0 0.0
2017-Jul-18 07:30N 35°39' E 139°46'0 0.0
2017-Jul-18 07:00N 35°39' E 139°46'0 0.0
2017-Jul-18 06:30N 35°39' E 139°46'0 0.0
2017-Jul-18 06:00N 35°39' E 139°46'0 0.0
2017-Jul-18 05:10N 35°39' E 139°46'0 0.0
2017-Jul-18 04:53N 35°39' E 139°46'0 0.0
2017-Jul-18 03:31N 35°39' E 139°46'0 0.0
2017-Jul-18 03:30N 35°39' E 139°46'0 0.0
2017-Jul-18 02:55N 35°39' E 139°46'0 0.0
2017-Jul-18 02:27N 35°39' E 139°46'0 0.0
2017-Jul-18 02:01N 35°39' E 139°46'0 0.0
2017-Jul-18 01:30N 35°39' E 139°46'0 0.0
2017-Jul-18 00:54N 35°39' E 139°46'0 0.0
2017-Jul-18 00:01N 35°39' E 139°46'0 0.0
2017-Jul-17 23:56N 35°39' E 139°46'2 5.1
2017-Jul-17 23:30N 35°37' E 139°46'1 2.4
2017-Jul-17 23:00N 35°36' E 139°47'1 1.9
2017-Jul-17 22:31N 35°35' E 139°48'3 5.9
2017-Jul-17 22:00N 35°33' E 139°50'2 4.7
2017-Jul-17 21:30N 35°33' E 139°53'5 9.5
2017-Jul-17 21:00N 35°35' E 139°48'2 3.5
2017-Jul-17 20:30N 35°36' E 139°46'1 2.5
2017-Jul-17 20:01N 35°37' E 139°46'2 3.2
2017-Jul-17 19:31N 35°39' E 139°46'0 0.0
2017-Jul-17 18:41N 35°39' E 139°46'0 0.0
2017-Jul-17 16:28N 35°39' E 139°46'0 0.0
2017-Jul-17 15:53N 35°39' E 139°46'0 0.0
2017-Jul-17 13:38N 35°39' E 139°46'0 0.0
2017-Jul-17 13:30N 35°39' E 139°46'0 0.0
2017-Jul-17 13:00N 35°39' E 139°46'0 0.0
2017-Jul-17 12:04N 35°39' E 139°46'0 0.0
2017-Jul-17 11:58N 35°39' E 139°46'0 0.0
2017-Jul-17 09:25N 35°39' E 139°46'0 0.0
2017-Jul-17 09:00N 35°39' E 139°46'0 0.0
2017-Jul-17 08:30N 35°39' E 139°46'0 0.0
2017-Jul-17 07:59N 35°39' E 139°46'0 0.0
2017-Jul-17 07:30N 35°39' E 139°46'0 0.0
2017-Jul-17 07:00N 35°39' E 139°46'0 0.0
2017-Jul-17 06:31N 35°39' E 139°46'0 0.0
2017-Jul-17 06:00N 35°39' E 139°46'0 0.0
2017-Jul-17 05:30N 35°39' E 139°46'0 0.0
2017-Jul-17 04:58N 35°39' E 139°46'0 0.0
2017-Jul-17 01:58N 35°39' E 139°46'0 0.0
2017-Jul-17 01:28N 35°39' E 139°46'0 0.0
2017-Jul-17 00:45N 35°39' E 139°46'0 0.0
2017-Jul-16 22:17N 35°39' E 139°46'0 0.0
2017-Jul-16 22:00N 35°39' E 139°46'0 0.0
2017-Jul-16 21:30N 35°39' E 139°46'0 0.0
2017-Jul-16 21:00N 35°39' E 139°46'0 0.0
2017-Jul-16 20:30N 35°39' E 139°46'0 0.0
2017-Jul-16 20:00N 35°39' E 139°46'0 0.0
2017-Jul-16 19:31N 35°39' E 139°46'0 0.0
2017-Jul-16 19:00N 35°39' E 139°46'0 0.0
2017-Jul-16 18:30N 35°39' E 139°46'0 0.0
2017-Jul-16 18:00N 35°39' E 139°46'0 0.0
2017-Jul-16 17:30N 35°39' E 139°46'0 0.0
2017-Jul-16 17:00N 35°39' E 139°46'0 0.0
2017-Jul-16 16:30N 35°39' E 139°46'0 0.0
2017-Jul-16 16:00N 35°39' E 139°46'0 0.0
2017-Jul-16 15:30N 35°39' E 139°46'0 0.0
2017-Jul-16 14:54N 35°39' E 139°46'0 0.0
2017-Jul-16 14:21N 35°39' E 139°46'0 0.0
2017-Jul-16 14:01N 35°39' E 139°46'0 0.0
2017-Jul-16 12:50N 35°39' E 139°46'0 0.0
2017-Jul-16 12:24N 35°39' E 139°46'0 0.0
2017-Jul-16 11:55N 35°39' E 139°46'0 0.0
2017-Jul-16 11:30N 35°39' E 139°46'0 0.0
2017-Jul-16 10:57N 35°39' E 139°46'0 0.0
2017-Jul-16 10:29N 35°39' E 139°46'0 0.0
2017-Jul-16 09:59N 35°39' E 139°46'0 0.0
2017-Jul-16 09:30N 35°39' E 139°46'0 0.0
2017-Jul-16 09:00N 35°39' E 139°46'0 0.0
2017-Jul-16 08:30N 35°39' E 139°46'0 0.0
2017-Jul-16 08:00N 35°39' E 139°46'0 0.0
2017-Jul-16 07:30N 35°39' E 139°46'0 0.0
2017-Jul-16 07:00N 35°39' E 139°46'0 0.0
2017-Jul-16 06:30N 35°39' E 139°46'0 0.0
2017-Jul-16 06:01N 35°39' E 139°46'0 0.0
2017-Jul-16 05:30N 35°39' E 139°46'0 0.0
2017-Jul-16 05:01N 35°39' E 139°46'0 0.0
2017-Jul-16 04:30N 35°39' E 139°46'0 0.0
2017-Jul-16 04:00N 35°39' E 139°46'0 0.0
2017-Jul-16 03:30N 35°39' E 139°46'0 0.0
2017-Jul-16 02:57N 35°39' E 139°46'0 0.0
2017-Jul-16 01:13N 35°39' E 139°46'0 0.0
2017-Jul-16 00:55N 35°39' E 139°46'0 0.0
2017-Jul-16 00:23N 35°39' E 139°46'0 0.0
2017-Jul-15 23:50N 35°39' E 139°46'0 0.0
2017-Jul-15 22:45N 35°39' E 139°46'0 0.0
2017-Jul-15 22:28N 35°39' E 139°46'0 0.0
2017-Jul-15 22:00N 35°39' E 139°46'0 0.0
2017-Jul-15 21:30N 35°39' E 139°46'0 0.0
2017-Jul-15 21:00N 35°39' E 139°46'0 0.0
2017-Jul-15 20:31N 35°39' E 139°46'0 0.0
2017-Jul-15 20:00N 35°39' E 139°46'0 0.0
2017-Jul-15 19:31N 35°39' E 139°46'0 0.0
2017-Jul-15 19:00N 35°39' E 139°46'0 0.0
2017-Jul-15 18:30N 35°39' E 139°46'0 0.0
2017-Jul-15 18:00N 35°39' E 139°46'0 0.0
2017-Jul-15 17:31N 35°39' E 139°46'0 0.0
2017-Jul-15 17:00N 35°39' E 139°46'0 0.0
2017-Jul-15 16:30N 35°39' E 139°46'0 0.0
2017-Jul-15 16:01N 35°39' E 139°46'0 0.0
2017-Jul-15 15:30N 35°39' E 139°46'0 0.0
2017-Jul-15 15:01N 35°39' E 139°46'0 0.0
2017-Jul-15 12:32N 35°39' E 139°46'0 0.0
2017-Jul-15 12:29N 35°39' E 139°46'0 0.0
2017-Jul-15 11:41N 35°39' E 139°46'0 0.0
2017-Jul-15 09:58N 35°39' E 139°46'0 0.0
2017-Jul-15 09:25N 35°39' E 139°46'0 0.0
2017-Jul-15 09:00N 35°39' E 139°46'1 2.7
2017-Jul-15 08:31N 35°37' E 139°46'2 3.4
2017-Jul-15 08:00N 35°36' E 139°47'0 0.8
2017-Jul-15 07:31N 35°35' E 139°47'1 2.3
2017-Jul-15 07:00N 35°37' E 139°47'2 2.2
2017-Jul-15 06:13N 35°38' E 139°45'1 0.2
2017-Jul-15 02:59N 35°39' E 139°46'0 0.0
2017-Jul-15 02:31N 35°39' E 139°46'0 0.0
2017-Jul-15 02:00N 35°39' E 139°46'0 0.0
2017-Jul-15 01:30N 35°39' E 139°46'0 0.0
2017-Jul-15 01:01N 35°39' E 139°46'0 0.0
2017-Jul-15 00:31N 35°39' E 139°46'0 0.0
2017-Jul-15 00:00N 35°39' E 139°46'0 0.7
2017-Jul-14 23:30N 35°38' E 139°46'3 5.5
2017-Jul-14 23:00N 35°36' E 139°46'1 2.8
2017-Jul-14 22:30N 35°35' E 139°48'0 0.8
2017-Jul-14 22:00N 35°35' E 139°48'4 8.0
2017-Jul-14 21:31N 35°38' E 139°46'1 1.4
2017-Jul-14 21:00N 35°39' E 139°46'0 0.0
2017-Jul-14 20:30N 35°39' E 139°46'0 0.0
2017-Jul-14 20:00N 35°39' E 139°46'0 0.0
2017-Jul-14 19:31N 35°39' E 139°46'0 0.0
2017-Jul-14 19:01N 35°39' E 139°46'0 0.0
2017-Jul-14 18:30N 35°39' E 139°46'0 0.0
2017-Jul-14 18:00N 35°39' E 139°46'0 0.0
2017-Jul-14 17:30N 35°39' E 139°46'0 0.0
2017-Jul-14 17:00N 35°39' E 139°46'0 0.0
2017-Jul-14 16:30N 35°39' E 139°46'0 0.0
2017-Jul-14 16:01N 35°39' E 139°46'0 0.0
2017-Jul-14 15:31N 35°39' E 139°46'0 0.0
2017-Jul-14 15:01N 35°39' E 139°46'0 0.0
2017-Jul-14 14:31N 35°39' E 139°46'0 0.0
2017-Jul-14 14:01N 35°39' E 139°46'0 0.0
2017-Jul-14 13:31N 35°39' E 139°46'0 0.0
2017-Jul-14 07:42N 35°39' E 139°46'1 3.2
2017-Jul-14 07:16N 35°37' E 139°46'1 3.6
2017-Jul-14 07:00N 35°38' E 139°46'  

Dump ship's entire track history